Aérodrome :
LOGIN :

S'inscrire | Disclaimer

   EN    FR    IT 

 










Légende :    VFR   VFR Marginal   IFR   IFR Intensif   IFR Très Intensif
Visi : 
Plafond : 
>= 8 km
>= 3000ft
5 à 8 km
1000 à 3000 ft
1500m à 5 km
500 à 1000 ft
800 à 1500m
200 à 500 ft
< 800m
< 200 ft
Symboles :   Orages  Brouillard  Fortes neiges  Fortes précipitations  Vent > 20 kt
SIGMETs :   Divers  Orages  Givrage  Turbulence  Onde Orograph.  Cendres Volcan.







- Altitude de l'aérodrome : 38 ft
- Code IATA : BOH
- Voir les cartes d'approche


EGHH - Bournemouth

DERNIER METAR :
  • 230650Z 21004KT 9999 MIFG NSC 03/03 Q1033

METARs EXPIRÉS :
  • 230620Z 24003KT 9999 MIFG NSC 03/03 Q1034
  • 230550Z 23004KT CAVOK 02/01 Q1034
  • 230520Z 24004KT CAVOK 04/03 Q1034
  • 230450Z 24004KT CAVOK 05/05 Q1034

TAF TAF EGHH
Valide du 23 à 05h jusqu'au 23 à 14h UTC


230527Z 2305/2314 28005KT 9999 FEW030
PROB30
TEMPO 2305/2309 4000 BR BKN007
PROB30
TEMPO 2309/2311 BKN012
PROB30
TEMPO 2310/2314 31015G25KT
ATIS : +44 1202 364 151
Météo : +44 1202 364 158 (TAF)
Pas de NOTAMs connus pour ce terrain.
2 SIGMETs publiés pour la FIR London (EGTT) :
 
Onde orographique forte
EGTT SIGMET 04 VALID 230600/231000 EGRR
EGTT LONDON FIR SEV MTW FCST WI N5500 W00530 - N5500 E00101 - N5302 E00134 - N5319 W00150 - N5430 W00530 - N5500 W00530 FL030/250 STNR NC=
Turbulence forte
EGTT SIGMET 03 VALID 230600/231000 EGRR
EGTT LONDON FIR SEV TURB FCST WI N5354 W00135 - N5500 W00436 - N5500 E00500 - N5434 E00436 - N5354 W00135 SFC/FL060 STNR NC=



MET'MAP, la Météo Aéronautique d'un coup d'oeil ! - Copyright ORBIFLY Décembre 2007 - Disclaimer

ORBIFLY MET'MAP TEAM :

Programmation & Développement : Alexandra Zaïnal
Conception & Développement : Baudouin d'Aumeries
Co-Programmation & Développement : Marc-Olivier Méhu
Soutien technique & logistique : Manuel Goepfert

Contact : metmap@orbifly.com




SOURCES & CREDITS :

   NOAA